Flughafen Karlsruhe/Baden-Baden

Aus VATSIM Germany
Dies ist die bestätigte sowie die neueste Version dieser Seite.
Wechseln zu:Navigation, Suche
UnderCon icon.svg.pngDieser Artikel ist noch im Aufbau. Der Artikel kann daher unvollständig sein oder Fehler enthalten!


Karlsruhe Baden-Baden Airport
ICAO / IATA EDSB / FKB
Koordinaten N48°46′46″  E008°4′50″
Höhe 124 m / 408 ft
Wetter EDSB 190450Z VRB02KT 4000 -RA BR SCT003 07/07 Q1024
Pisten
Platzfrequenzen
Nur für Flugsimulationszwecke!



Informationen für Piloten und Lotsen
Pilotenbriefing

Standard Operating Procedures (SOP)

Letters of Agreement (LoAs)

Airport Charts

Screenshot 3.png